Cytokinetics Inc (NASDAQ:CYTK)

CAPS Rating: 3 out of 5

A biopharmaceutical company, focused on developing small molecule therapeutics for the treatment of cardiovascular diseases and cancer.

Results 1 - 99 of 192 : 1 2 Next »
Top
Pick
Member Name Member
Rating
Start
Date
Call Time
Frame
Start
Price
Stock
Gain
Index
Gain
Score Commentary
vrpaul 58.96 1/21/2015 Outperform 5Y $7.26 +6.41% +0.14% +6.27 0 Comment
guillu 66.41 1/16/2015 Outperform 3W $7.44 +3.76% +1.02% +2.74 0 Comment
This player feels very strongly about this pick and has marked it a Top Pick. Top Picks do not affect a player’s score. skyrocket29 58.28 12/26/2014 Outperform 1Y $6.46 +19.51% -2.81% +22.32 0 Comment
dflo 89.90 12/5/2014 Outperform 5Y $4.57 +68.93% -2.47% +71.40 0 Comment
Kami74 < 20 11/28/2014 Outperform 5Y $4.58 +68.56% -2.29% +70.85 0 Comment
cthomas1017 91.23 11/18/2014 Underperform 5Y $4.11 +87.83% -0.83% -88.67 0 Comment
flemishinvestor < 20 11/18/2014 Outperform 3Y $4.21 +83.37% -1.24% +84.62 0 Comment
MacroHedge 91.42 11/7/2014 Outperform 5Y $4.11 +87.83% -0.24% +88.07 0 Comment
hayrettin 70.02 10/13/2014 Outperform 5Y $3.37 +129.08% +6.68% +122.40 0 Comment
ptanabe 89.46 9/9/2014 Outperform 5Y $3.67 +110.21% +1.32% +108.89 1 Comment
GyroDynasty 98.41 7/21/2014 Outperform 5Y $4.25 +81.65% +2.87% +78.78 0 Comment
OKwarrior 43.30 6/6/2014 Outperform 5Y $4.88 +58.20% +4.04% +54.16 1 Comment
ArmyRob 72.08 5/7/2014 Underperform 5Y $4.14 +86.47% +8.12% -78.36 0 Comment
AsianMatter < 20 4/28/2014 Outperform 3W $4.58 +68.56% +8.39% +60.17 0 Comment
portefeuille2 99.76 4/25/2014 Outperform 5Y $4.91 +57.39% +8.66% +48.73 0 Comment
peregrine 99.12 4/25/2014 Outperform 5Y $5.07 +52.27% +8.95% +43.32 0 Comment
portefeuille 99.72 4/16/2014 Outperform 5Y $8.95 -13.74% +9.31% -23.05 0 Comment
TerryFool 83.38 4/15/2014 Outperform 5Y $8.94 -13.65% +11.32% -24.97 1 Comment
TerryHoodSr 71.86 4/15/2014 Outperform 5Y $8.94 -13.65% +10.62% -24.27 1 Comment
msb09 20.51 4/2/2014 Outperform 3M $9.79 -21.14% +7.55% -28.70 0 Comment
Haugurafpeningum 29.59 3/31/2014 Outperform 5Y $9.20 -16.09% +8.62% -24.71 0 Comment
IVolStrategy 31.07 3/26/2014 Outperform 1Y $9.02 -14.41% +8.40% -22.81 0 Comment
BioForcePicks1 92.06 3/25/2014 Outperform 3M $8.94 -13.65% +8.92% -22.56 0 Comment
Dmaral < 20 2/27/2014 Outperform 5Y $10.31 -25.12% +9.43% -34.55 0 Comment
This player feels very strongly about this pick and has marked it a Top Pick. Top Picks do not affect a player’s score. s2dbaker 88.28 1/10/2014 Outperform 5Y $9.22 -16.27% +10.41% -26.68 1 Comment
flypower 99.35 1/7/2014 Outperform 5Y $7.30 +5.75% +10.73% -4.98 0 Comment
HoosierDoozer < 20 12/23/2013 Outperform 5Y $6.60 +16.97% +11.06% +5.91 0 Comment
grahamfordummies 71.37 8/8/2013 12/4/2013 Outperform 3Y $10.21 -24.39% +19.27% -43.66 1 Comment
cavemantrader 48.44 11/7/2013 Outperform 5Y $6.33 +21.96% +15.86% +6.09 0 Comment
mandynshane < 20 10/8/2013 Outperform NS $6.69 +15.40% +21.57% -6.17 0 Comment
ImFive 38.19 10/7/2013 Outperform 5Y $7.03 +9.82% +21.10% -11.28 0 Comment
ralonsot < 20 10/2/2013 Outperform 5Y $7.38 +4.61% +20.10% -15.49 0 Comment
withoutDoubt 21.81 9/5/2013 Outperform 5Y $8.32 -7.27% +22.04% -29.31 0 Comment
fatmoneyrz 99.25 9/3/2013 Outperform 5Y $7.79 -0.90% +22.66% -23.56 0 Comment
KidJones 98.30 9/3/2013 Outperform 5Y $8.62 -10.44% +22.70% -33.14 0 Comment
Greeniesnack 50.25 8/23/2013 Outperform 5Y $11.11 -30.51% +21.73% -52.24 0 Comment
FoolPep 32.40 8/22/2013 Outperform 3M $11.60 -33.45% +22.95% -56.40 0 Comment
SCOTTRHUETTLCPA 65.95 8/19/2013 Underperform 3W $10.18 -24.17% +22.74% +46.90 0 Comment
rknapton < 20 8/7/2013 Underperform 5Y $10.55 -26.82% +19.83% +46.65 1 Comment
ababrmon 98.36 7/31/2013 Outperform 3M $12.47 -38.09% +20.19% -58.28 0 Comment
efarev 99.44 2/4/2011 7/26/2013 Outperform 5Y $11.16 -30.82% +54.93% -85.75 0 Comment
ronmcpeek < 20 7/19/2013 Outperform 5Y $13.43 -42.52% +20.31% -62.82 0 Comment
TMFEZMagic 35.87 7/15/2013 Underperform 5Y $13.76 -43.90% +20.74% +64.63 0 Comment
batman35 40.02 7/12/2013 Outperform 1Y $13.60 -43.24% +21.04% -64.27 0 Comment
kaletbaldrich27 < 20 7/10/2013 Outperform 1Y $13.30 -41.95% +23.02% -64.97 1 Comment
Jsams82 < 20 7/1/2013 Outperform 1Y $11.58 -33.33% +25.72% -59.06 0 Comment
OriginalBarnacle 75.22 7/1/2013 Underperform 1Y $11.58 -33.33% +25.72% +59.06 0 Comment
JJ68 < 20 6/26/2013 Outperform 5Y $12.10 -36.22% +27.03% -63.25 0 Comment
ytryan 36.63 6/19/2013 Outperform 5Y $11.28 -31.56% +23.12% -54.68 0 Comment
Scraming < 20 6/19/2013 Outperform 3M $11.58 -33.33% +22.48% -55.81 0 Comment
saab93boi < 20 6/18/2013 Underperform 5Y $11.10 -30.45% +22.21% +52.66 0 Comment
shonny2 < 20 5/22/2013 Outperform 5Y $6.90 +11.89% +20.92% -9.03 0 Comment
OttoBismarck 99.88 5/10/2013 Underperform 5Y $6.42 +20.25% +24.39% +4.14 0 Comment
ava5147 < 20 2/19/2013 Outperform 1Y $6.24 +23.72% +33.06% -9.34 0 Comment
mcdbenbe < 20 2/19/2013 Outperform 5Y $6.24 +23.72% +33.06% -9.34 0 Comment
montys3 32.05 1/22/2013 Outperform 5Y $5.99 +28.96% +36.21% -7.25 0 Comment
Spyrig < 20 12/17/2012 Outperform 5Y $4.02 +92.04% +42.30% +49.74 0 Comment
mdrnsamurai < 20 12/12/2012 Outperform 5Y $4.29 +79.95% +40.79% +39.16 0 Comment
danculbertson 75.20 10/15/2012 Outperform 3M $4.41 +75.06% +41.12% +33.94 0 Comment
millerto 52.27 8/31/2012 Outperform 1Y $4.58 +68.65% +43.85% +24.81 0 Comment
IdahoInvestor 29.20 8/8/2012 Underperform 5Y $4.00 +92.96% +44.29% -48.67 0 Comment
iadops40 54.26 7/13/2012 Outperform 1Y $4.02 +92.04% +51.46% +40.58 0 Comment
THERULERGOD < 20 7/11/2012 Outperform 5Y $4.26 +81.22% +51.06% +30.16 0 Comment
greentah 59.90 7/9/2012 Outperform 5Y $4.32 +78.70% +49.76% +28.95 0 Comment
HongHue 42.82 7/6/2012 Outperform 1Y $3.90 +97.95% +49.66% +48.29 0 Comment
Harlequinvestor 42.83 6/18/2012 Outperform 1Y $5.16 +49.61% +51.77% -2.16 0 Comment
ConradMike55 < 20 5/10/2012 Outperform 3W $5.58 +38.35% +48.33% -9.98 0 Comment
Arsenal1860 < 20 5/10/2012 Outperform 5Y $5.58 +38.35% +48.33% -9.98 0 Comment
MythQuinn 77.75 5/8/2012 Outperform 3Y $5.52 +39.86% +48.51% -8.65 0 Comment
stainsolution 60.44 5/8/2012 Outperform 5Y $5.70 +35.44% +48.77% -13.33 0 Comment
foolbull12 < 20 5/8/2012 Outperform 5Y $5.52 +39.86% +48.93% -9.08 0 Comment
RBuskey106 54.93 3/15/2012 Outperform 5Y $7.14 +8.12% +44.23% -36.10 1 Comment
TechSci 29.95 3/6/2012 Outperform 5Y $6.54 +18.04% +50.23% -32.19 0 Comment
mhy729 30.40 2/17/2011 2/13/2012 Outperform 1Y $9.18 -15.88% +51.64% -67.52 0 Comment
drt2202 < 20 12/29/2011 Outperform 5Y $5.94 +29.97% +61.88% -31.91 0 Comment
CaptainVegetable < 20 8/5/2011 Outperform 5Y $7.14 +8.12% +66.74% -58.62 0 Comment
pobeda79 32.71 6/20/2011 Outperform 5Y $6.90 +11.88% +60.12% -48.23 0 Comment
amsteinberg86 < 20 5/31/2011 Outperform 3Y $8.64 -10.65% +50.43% -61.08 0 Comment
codyjr002 98.22 5/27/2011 Outperform 5Y $8.64 -10.65% +51.87% -62.51 0 Comment
Thleter 34.91 5/24/2011 Outperform 1Y $8.10 -4.69% +53.63% -58.32 1 Comment
ag77840 22.30 5/18/2011 Outperform 5Y $8.61 -10.34% +51.10% -61.43 0 Comment
Doggity 72.67 5/17/2011 Outperform 5Y $8.64 -10.65% +52.79% -63.44 0 Comment
Euro247 36.66 5/13/2011 Outperform 5Y $8.79 -12.17% +51.45% -63.62 0 Comment
inouye 57.00 5/3/2011 Outperform 1Y $8.52 -9.39% +49.56% -58.95 0 Comment
NVTreasureHunter 29.13 4/27/2011 Outperform NS $9.00 -14.22% +50.12% -64.34 0 Comment
Squeege1981 45.09 4/18/2011 Outperform 5Y $8.64 -10.65% +55.25% -65.90 0 Comment
reachmygoals1 < 20 4/11/2011 Outperform 3M $8.94 -13.65% +52.44% -66.08 0 Comment
limeonaire 98.45 4/4/2011 Outperform 5Y $9.00 -14.22% +51.94% -66.17 0 Comment
ajhers2 < 20 3/25/2011 Outperform 5Y $8.46 -8.75% +53.78% -62.52 0 Comment
lombardy 30.27 3/22/2011 Outperform 5Y $7.62 +1.31% +56.29% -54.98 0 Comment
binyalazar < 20 3/10/2011 Outperform 5Y $8.99 -14.16% +55.26% -69.43 0 Comment
WorldOnFire 28.25 2/23/2011 Outperform 3W $8.70 -11.26% +53.88% -65.15 0 Comment
HackInvestor < 20 2/22/2011 Outperform 5Y $9.12 -15.35% +52.30% -67.65 0 Comment
cheaply 21.11 2/10/2011 Outperform 1Y $11.16 -30.82% +54.06% -84.88 1 Comment
phineas333 30.84 2/10/2011 Outperform 5Y $11.04 -30.07% +54.06% -84.13 0 Comment
Cjbrat1 29.46 1/10/2011 Outperform 5Y $12.36 -37.54% +60.17% -97.71 0 Comment
atlasbooks 88.38 1/4/2011 Outperform 3M $12.96 -40.43% +59.22% -99.66 0 Comment
FinanceGuy58 66.87 12/20/2010 Outperform 5Y $13.14 -41.25% +62.66% -103.91 0 Comment
Okcfirefighter < 20 12/17/2010 Outperform 5Y $12.72 -39.31% +63.05% -102.36 0 Comment
Results 1 - 99 of 192 : 1 2 Next »

Featured Broker Partners


Advertisement